createdAt,value
2023-10-04T00:00:22.420Z,98844.19
2023-10-04T00:00:35.863Z,98847.38
2023-10-04T00:00:49.026Z,98839.62
2023-10-04T00:01:01.988Z,98847.16
2023-10-04T00:01:17.047Z,98841.06
2023-10-04T00:01:30.050Z,98845.25
2023-10-04T00:01:43.247Z,98842.47
2023-10-04T00:01:56.129Z,98849.53
2023-10-04T00:02:10.852Z,98845.16
2023-10-04T00:02:24.695Z,98849.84
2023-10-04T00:02:37.751Z,98833.03
2023-10-04T00:02:52.857Z,98838.28
2023-10-04T00:03:07.193Z,98831.00
2023-10-04T00:03:20.164Z,98839.25
2023-10-04T00:03:33.565Z,98839.34
2023-10-04T00:03:48.354Z,98836.47
2023-10-04T00:04:03.080Z,98840.09
2023-10-04T00:04:16.168Z,98836.47
2023-10-04T00:04:29.203Z,98839.69
2023-10-04T00:04:44.963Z,98833.22
2023-10-04T00:04:58.397Z,98843.06
2023-10-04T00:05:12.030Z,98839.44
2023-10-04T00:05:26.051Z,98837.91
2023-10-04T00:05:39.338Z,98844.97
2023-10-04T00:05:52.166Z,98840.28
2023-10-04T00:06:05.523Z,98845.75
2023-10-04T00:06:19.130Z,98843.63
2023-10-04T00:06:34.909Z,98848.22
2023-10-04T00:06:47.879Z,98837.59
2023-10-04T00:07:05.141Z,98838.38
2023-10-04T00:07:17.965Z,98838.78
2023-10-04T00:07:30.861Z,98843.91
2023-10-04T00:07:45.804Z,98842.19
2023-10-04T00:07:58.681Z,98841.63
2023-10-04T00:08:11.504Z,98843.63
2023-10-04T00:08:26.372Z,98842.97
2023-10-04T00:08:39.232Z,98842.13
2023-10-04T00:08:52.262Z,98840.75
2023-10-04T00:09:05.248Z,98842.56
2023-10-04T00:09:18.315Z,98839.69
2023-10-04T00:09:33.243Z,98844.13
2023-10-04T00:09:46.190Z,98839.53
2023-10-04T00:10:00.294Z,98840.50
2023-10-04T00:10:13.225Z,98843.91
2023-10-04T00:10:26.085Z,98839.53
2023-10-04T00:10:40.243Z,98838.66
2023-10-04T00:10:53.108Z,98842.31
2023-10-04T00:11:05.968Z,98843.16
2023-10-04T00:11:18.776Z,98842.87
2023-10-04T00:11:32.440Z,98846.50
2023-10-04T00:11:45.268Z,98834.63
2023-10-04T00:11:58.092Z,98844.28
2023-10-04T00:12:11.914Z,98837.13
2023-10-04T00:12:24.790Z,98842.75
2023-10-04T00:12:38.045Z,98840.94
2023-10-04T00:12:51.080Z,98837.50
2023-10-04T00:13:04.337Z,98844.78
2023-10-04T00:13:17.225Z,98838.56
2023-10-04T00:13:30.023Z,98848.53
2023-10-04T00:13:44.942Z,98841.44
2023-10-04T00:13:57.946Z,98844.78
2023-10-04T00:14:10.759Z,98843.81
2023-10-04T00:14:23.590Z,98845.84
2023-10-04T00:14:36.418Z,98842.19
2023-10-04T00:14:49.263Z,98845.75
2023-10-04T00:15:03.095Z,98851.34
2023-10-04T00:15:16.086Z,98843.44
2023-10-04T00:15:30.501Z,98845.16
2023-10-04T00:15:43.466Z,98839.69
2023-10-04T00:15:56.345Z,98847.72
2023-10-04T00:16:09.257Z,98844.97
2023-10-04T00:16:23.278Z,98845.62
2023-10-04T00:16:36.301Z,98843.34
2023-10-04T00:16:49.544Z,98849.47
2023-10-04T00:17:04.808Z,98846.00
2023-10-04T00:17:17.654Z,98845.75
2023-10-04T00:17:30.507Z,98851.84
2023-10-04T00:17:43.823Z,98848.41
2023-10-04T00:17:56.852Z,98848.53
2023-10-04T00:18:11.339Z,98840.66
2023-10-04T00:18:24.306Z,98840.66
2023-10-04T00:18:37.720Z,98844.03
2023-10-04T00:18:50.863Z,98847.47
2023-10-04T00:19:06.698Z,98847.56
2023-10-04T00:19:19.530Z,98847.56
2023-10-04T00:19:33.696Z,98842.19
2023-10-04T00:19:48.656Z,98846.81
2023-10-04T00:20:04.002Z,98850.50
2023-10-04T00:20:17.993Z,98846.00
2023-10-04T00:20:34.574Z,98842.19
2023-10-04T00:20:47.392Z,98844.97
2023-10-04T00:21:00.579Z,98846.69
2023-10-04T00:21:13.495Z,98843.25
2023-10-04T00:21:26.381Z,98840.84
2023-10-04T00:21:39.301Z,98844.19
2023-10-04T00:21:52.639Z,98841.44
2023-10-04T00:22:05.555Z,98845.53
2023-10-04T00:22:20.172Z,98842.00
2023-10-04T00:22:33.020Z,98840.94
2023-10-04T00:22:47.902Z,98838.16
2023-10-04T00:23:01.728Z,98833.66
2023-10-04T00:23:14.539Z,98839.81
2023-10-04T00:23:27.397Z,98838.84
2023-10-04T00:23:40.506Z,98839.03
2023-10-04T00:23:53.404Z,98837.78
2023-10-04T00:24:06.491Z,98836.06
2023-10-04T00:24:19.339Z,98834.16
2023-10-04T00:24:32.726Z,98839.72
2023-10-04T00:24:45.956Z,98836.75
2023-10-04T00:25:05.040Z,98837.50
2023-10-04T00:25:22.540Z,98835.47
2023-10-04T00:25:36.029Z,98833.50
2023-10-04T00:25:48.873Z,98837.19
2023-10-04T00:26:01.697Z,98836.16
2023-10-04T00:26:14.558Z,98839.59
2023-10-04T00:26:27.382Z,98837.78
2023-10-04T00:26:40.375Z,98833.09
2023-10-04T00:26:53.174Z,98839.94
2023-10-04T00:27:06.036Z,98846.16
2023-10-04T00:27:19.892Z,98833.94
2023-10-04T00:27:32.783Z,98835.75
2023-10-04T00:27:45.642Z,98841.13
2023-10-04T00:27:58.590Z,98836.41
2023-10-04T00:28:11.409Z,98840.63
2023-10-04T00:28:24.246Z,98833.56
2023-10-04T00:28:39.097Z,98836.72
2023-10-04T00:28:51.951Z,98840.38
2023-10-04T00:29:07.767Z,98842.94
2023-10-04T00:29:20.698Z,98837.19
2023-10-04T00:29:33.574Z,98832.72
2023-10-04T00:29:48.938Z,98838.06
2023-10-04T00:30:02.085Z,98841.59
2023-10-04T00:30:16.025Z,98840.66
2023-10-04T00:30:29.571Z,98838.91
2023-10-04T00:30:44.314Z,98837.78
2023-10-04T00:30:57.161Z,98837.69
2023-10-04T00:31:11.923Z,98837.78
2023-10-04T00:31:24.782Z,98841.41
2023-10-04T00:31:37.907Z,98840.47
2023-10-04T00:31:51.038Z,98846.94
2023-10-04T00:32:05.685Z,98843.91
2023-10-04T00:32:18.683Z,98834.16
2023-10-04T00:32:31.602Z,98841.22
2023-10-04T00:32:45.704Z,98840.38
2023-10-04T00:32:59.410Z,98842.94
2023-10-04T00:33:16.680Z,98835.22
2023-10-04T00:33:30.252Z,98842.19
2023-10-04T00:33:44.485Z,98848.28
2023-10-04T00:33:57.369Z,98841.97
2023-10-04T00:34:10.390Z,98849.81
2023-10-04T00:34:23.329Z,98841.59
2023-10-04T00:34:36.156Z,98844.94
2023-10-04T00:34:49.200Z,98850.66
2023-10-04T00:35:02.076Z,98844.06
2023-10-04T00:35:19.118Z,98840.97
2023-10-04T00:35:32.195Z,98847.28
2023-10-04T00:35:45.046Z,98841.94
2023-10-04T00:35:57.964Z,98845.47
2023-10-04T00:36:14.294Z,98846.25
2023-10-04T00:36:27.598Z,98839.09
2023-10-04T00:36:40.461Z,98845.31
2023-10-04T00:36:53.982Z,98846.06
2023-10-04T00:37:09.062Z,98848.63
2023-10-04T00:37:21.910Z,98845.09
2023-10-04T00:37:35.578Z,98846.84
2023-10-04T00:37:57.782Z,98845.78
2023-10-04T00:38:14.981Z,98841.28
2023-10-04T00:38:28.812Z,98847.38
2023-10-04T00:38:41.796Z,98849.03
2023-10-04T00:38:54.623Z,98845.41
2023-10-04T00:39:08.597Z,98845.41
2023-10-04T00:39:21.455Z,98844.44
2023-10-04T00:39:35.353Z,98843.56
2023-10-04T00:39:48.830Z,98845.56
2023-10-04T00:40:01.629Z,98849.31
2023-10-04T00:40:19.620Z,98856.38
2023-10-04T00:40:33.434Z,98853.81
2023-10-04T00:40:48.366Z,98854.56
2023-10-04T00:41:01.407Z,98852.63
2023-10-04T00:41:14.289Z,98850.44
2023-10-04T00:41:27.392Z,98853.31
2023-10-04T00:41:41.695Z,98857.50
2023-10-04T00:41:56.710Z,98849.78
2023-10-04T00:42:10.890Z,98852.47
2023-10-04T00:42:23.736Z,98853.72
2023-10-04T00:42:36.928Z,98854.78
2023-10-04T00:42:51.155Z,98853.22
2023-10-04T00:43:14.988Z,98862.50
2023-10-04T00:43:28.019Z,98860.50
2023-10-04T00:43:51.195Z,98855.91
2023-10-04T00:44:10.941Z,98855.22
2023-10-04T00:44:23.790Z,98862.41
2023-10-04T00:44:37.147Z,98862.34
2023-10-04T00:44:49.971Z,98852.38
2023-10-04T00:45:03.074Z,98856.66
2023-10-04T00:45:16.993Z,98862.91
2023-10-04T00:45:33.687Z,98856.00
2023-10-04T00:45:49.208Z,98857.84
2023-10-04T00:46:02.442Z,98853.50
2023-10-04T00:46:15.366Z,98858.59
2023-10-04T00:46:28.252Z,98865.66
2023-10-04T00:46:43.663Z,98860.41
2023-10-04T00:46:57.490Z,98862.81
2023-10-04T00:47:11.128Z,98864.69
2023-10-04T00:47:24.928Z,98867.59
2023-10-04T00:47:37.803Z,98867.59
2023-10-04T00:47:57.804Z,98868.53
2023-10-04T00:48:14.675Z,98865.94
2023-10-04T00:48:35.958Z,98866.72
2023-10-04T00:48:51.207Z,98865.59
2023-10-04T00:49:05.980Z,98861.00
2023-10-04T00:49:18.903Z,98860.50
2023-10-04T00:49:33.139Z,98858.75
2023-10-04T00:49:47.089Z,98864.69
2023-10-04T00:50:08.584Z,98862.41
2023-10-04T00:50:32.799Z,98865.19
2023-10-04T00:50:45.882Z,98866.44
2023-10-04T00:51:00.542Z,98859.28
2023-10-04T00:51:14.284Z,98862.50
2023-10-04T00:51:27.490Z,98857.25
2023-10-04T00:51:41.567Z,98867.19
2023-10-04T00:51:54.412Z,98867.41
2023-10-04T00:52:09.428Z,98868.38
2023-10-04T00:52:22.278Z,98864.25
2023-10-04T00:52:35.340Z,98868.00
2023-10-04T00:52:53.705Z,98870.47
2023-10-04T00:53:08.941Z,98862.59
2023-10-04T00:53:23.693Z,98866.63
2023-10-04T00:53:36.517Z,98865.37
2023-10-04T00:53:49.429Z,98858.69
2023-10-04T00:54:11.354Z,98861.25
2023-10-04T00:54:24.256Z,98863.34
2023-10-04T00:54:37.125Z,98865.22
2023-10-04T00:54:50.320Z,98864.59
2023-10-04T00:55:03.201Z,98865.22
2023-10-04T00:55:17.941Z,98862.47
2023-10-04T00:55:31.080Z,98863.53
2023-10-04T00:55:45.335Z,98869.34
2023-10-04T00:55:58.455Z,98867.31
2023-10-04T00:56:13.297Z,98875.34
2023-10-04T00:56:26.135Z,98870.41
2023-10-04T00:56:40.481Z,98874.91
2023-10-04T00:56:54.015Z,98874.91
2023-10-04T00:57:07.063Z,98870.41
2023-10-04T00:57:19.979Z,98872.13
2023-10-04T00:57:32.968Z,98875.09
2023-10-04T00:57:46.015Z,98875.31
2023-10-04T00:57:58.895Z,98869.84
2023-10-04T00:58:13.772Z,98870.41
2023-10-04T00:58:26.665Z,98865.06
2023-10-04T00:58:39.771Z,98862.06
2023-10-04T00:58:53.968Z,98860.34
2023-10-04T00:59:07.087Z,98863.41
2023-10-04T00:59:20.543Z,98865.31
2023-10-04T00:59:34.993Z,98871.06
2023-10-04T00:59:47.891Z,98871.16
2023-10-04T01:00:00.987Z,98869.44
2023-10-04T01:00:14.852Z,98872.78
2023-10-04T01:00:27.843Z,98859.50
2023-10-04T01:00:42.085Z,98870.75
2023-10-04T01:00:55.416Z,98869.03
2023-10-04T01:01:08.352Z,98871.06
2023-10-04T01:01:21.184Z,98868.50
2023-10-04T01:01:34.255Z,98869.34
2023-10-04T01:01:47.142Z,98869.72
2023-10-04T01:01:59.982Z,98863.53
2023-10-04T01:02:12.869Z,98869.09
2023-10-04T01:02:25.742Z,98869.66
2023-10-04T01:02:38.760Z,98870.41
2023-10-04T01:02:51.700Z,98867.63
2023-10-04T01:03:06.446Z,98865.91
2023-10-04T01:03:25.899Z,98868.28
2023-10-04T01:03:39.464Z,98875.56
2023-10-04T01:03:52.705Z,98867.53
2023-10-04T01:04:06.529Z,98859.00
2023-10-04T01:04:19.701Z,98864.47
2023-10-04T01:04:32.754Z,98859.28
2023-10-04T01:04:45.668Z,98860.47
2023-10-04T01:04:58.574Z,98852.00
2023-10-04T01:05:13.164Z,98867.91
2023-10-04T01:05:28.240Z,98861.34
2023-10-04T01:05:47.535Z,98864.34
2023-10-04T01:06:01.412Z,98858.13
2023-10-04T01:06:15.355Z,98861.34
2023-10-04T01:06:28.603Z,98859.66
2023-10-04T01:06:41.923Z,98862.31
2023-10-04T01:06:55.208Z,98867.47
2023-10-04T01:07:08.042Z,98864.03
2023-10-04T01:07:22.234Z,98858.78
2023-10-04T01:07:35.950Z,98860.72
2023-10-04T01:07:50.225Z,98857.34
2023-10-04T01:08:03.209Z,98865.50
2023-10-04T01:08:22.127Z,98859.50
2023-10-04T01:08:35.321Z,98861.09
2023-10-04T01:08:48.982Z,98866.56
2023-10-04T01:09:01.998Z,98857.66
2023-10-04T01:09:15.704Z,98860.66
2023-10-04T01:09:28.618Z,98861.91
2023-10-04T01:09:43.728Z,98865.81
2023-10-04T01:09:56.724Z,98869.03
2023-10-04T01:10:17.525Z,98866.34
2023-10-04T01:10:34.578Z,98871.53
2023-10-04T01:10:48.267Z,98865.75
2023-10-04T01:11:01.139Z,98868.66
2023-10-04T01:11:14.103Z,98870.38
2023-10-04T01:11:27.030Z,98869.91
2023-10-04T01:11:46.637Z,98868.75
2023-10-04T01:11:59.804Z,98870.38
2023-10-04T01:12:12.879Z,98865.87
2023-10-04T01:12:25.834Z,98861.72
2023-10-04T01:12:39.544Z,98877.81
2023-10-04T01:12:53.480Z,98857.41
2023-10-04T01:13:11.127Z,98861.72
2023-10-04T01:13:27.384Z,98861.91
2023-10-04T01:13:41.297Z,98862.69
2023-10-04T01:14:08.705Z,98863.94
2023-10-04T01:14:29.013Z,98863.41
2023-10-04T01:14:41.966Z,98873.44
2023-10-04T01:14:55.108Z,98868.69
2023-10-04T01:15:27.163Z,98872.87
2023-10-04T01:15:42.849Z,98873.53
2023-10-04T01:16:00.577Z,98872.28
2023-10-04T01:16:14.122Z,98872.41
2023-10-04T01:16:26.978Z,98875.06
2023-10-04T01:16:42.908Z,98886.94
2023-10-04T01:16:56.808Z,98882.25
2023-10-04T01:17:14.076Z,98872.41
2023-10-04T01:17:29.435Z,98874.97
2023-10-04T01:17:42.728Z,98877.81
2023-10-04T01:17:56.037Z,98871.75
2023-10-04T01:18:13.452Z,98882.78
2023-10-04T01:18:29.225Z,98874.97
2023-10-04T01:18:42.125Z,98874.66
2023-10-04T01:18:55.014Z,98871.44
2023-10-04T01:19:08.860Z,98876.91
2023-10-04T01:19:23.863Z,98883.00
2023-10-04T01:19:36.823Z,98875.06
2023-10-04T01:19:49.696Z,98878.50
2023-10-04T01:20:02.561Z,98872.94
2023-10-04T01:20:15.406Z,98876.47
2023-10-04T01:20:34.967Z,98872.06
2023-10-04T01:20:47.916Z,98870.38
2023-10-04T01:21:00.869Z,98877.34
2023-10-04T01:21:15.539Z,98880.31
2023-10-04T01:21:28.552Z,98874.88
2023-10-04T01:21:41.598Z,98870.47
2023-10-04T01:21:54.455Z,98869.72
2023-10-04T01:22:07.414Z,98878.28
2023-10-04T01:22:20.234Z,98876.69
2023-10-04T01:22:33.175Z,98872.41
2023-10-04T01:22:46.087Z,98871.31
2023-10-04T01:23:02.494Z,98875.19
2023-10-04T01:23:15.920Z,98871.72
2023-10-04T01:23:30.113Z,98876.91
2023-10-04T01:23:43.034Z,98870.47
2023-10-04T01:23:56.566Z,98879.38
2023-10-04T01:24:12.728Z,98876.69
2023-10-04T01:24:25.670Z,98871.31
2023-10-04T01:24:42.504Z,98881.41
2023-10-04T01:24:55.360Z,98871.53
2023-10-04T01:25:12.633Z,98876.56
2023-10-04T01:25:26.615Z,98874.09
2023-10-04T01:25:42.494Z,98875.19
2023-10-04T01:25:55.406Z,98876.91
2023-10-04T01:26:10.414Z,98868.44
2023-10-04T01:26:27.200Z,98866.50
2023-10-04T01:26:40.414Z,98863.06
2023-10-04T01:26:53.272Z,98874.53
2023-10-04T01:27:07.724Z,98866.50
2023-10-04T01:27:20.670Z,98867.47
2023-10-04T01:27:34.868Z,98864.50
2023-10-04T01:27:49.022Z,98864.41
2023-10-04T01:28:03.162Z,98864.28
2023-10-04T01:28:28.520Z,98862.97
2023-10-04T01:28:41.775Z,98873.03
2023-10-04T01:28:56.852Z,98877.66
2023-10-04T01:29:13.419Z,98877.06
2023-10-04T01:29:26.336Z,98871.59
2023-10-04T01:29:39.863Z,98873.03
2023-10-04T01:29:52.768Z,98869.41
2023-10-04T01:30:11.774Z,98873.78
2023-10-04T01:30:24.901Z,98870.03
2023-10-04T01:30:37.777Z,98874.38
2023-10-04T01:30:52.607Z,98867.72
2023-10-04T01:31:06.902Z,98867.84
2023-10-04T01:31:20.551Z,98873.31
2023-10-04T01:31:36.825Z,98871.06
2023-10-04T01:31:49.668Z,98857.00
2023-10-04T01:32:02.906Z,98861.50
2023-10-04T01:32:16.918Z,98873.09
2023-10-04T01:32:30.294Z,98881.13
2023-10-04T01:32:43.305Z,98886.38
2023-10-04T01:32:56.252Z,98868.78
2023-10-04T01:33:17.268Z,98869.75
2023-10-04T01:33:31.280Z,98880.25
2023-10-04T01:33:44.920Z,98871.38
2023-10-04T01:33:59.346Z,98873.94
2023-10-04T01:34:14.561Z,98875.41
2023-10-04T01:34:28.131Z,98873.31
2023-10-04T01:34:41.270Z,98871.16
2023-10-04T01:34:54.123Z,98877.38
2023-10-04T01:35:07.327Z,98862.25
2023-10-04T01:35:24.413Z,98871.38
2023-10-04T01:35:38.602Z,98875.31
2023-10-04T01:35:55.693Z,98875.31
2023-10-04T01:36:08.599Z,98872.84
2023-10-04T01:36:21.788Z,98878.56
2023-10-04T01:36:38.034Z,98877.03
2023-10-04T01:36:51.098Z,98879.16
2023-10-04T01:37:05.920Z,98879.16
2023-10-04T01:37:19.046Z,98877.97
2023-10-04T01:37:33.647Z,98881.63
2023-10-04T01:37:47.729Z,98879.50
2023-10-04T01:38:00.711Z,98871.69
2023-10-04T01:38:14.391Z,98880.22
2023-10-04T01:38:28.207Z,98871.31
2023-10-04T01:38:42.046Z,98870.25
2023-10-04T01:38:55.059Z,98880.59
2023-10-04T01:39:08.990Z,98869.66
2023-10-04T01:39:22.077Z,98865.37
2023-10-04T01:39:35.045Z,98879.16
2023-10-04T01:39:47.900Z,98878.78
2023-10-04T01:40:01.804Z,98880.31
2023-10-04T01:40:14.680Z,98872.94
2023-10-04T01:40:30.105Z,98869.59
2023-10-04T01:40:49.405Z,98877.66
2023-10-04T01:41:02.373Z,98874.88
2023-10-04T01:41:15.225Z,98883.44
2023-10-04T01:41:29.160Z,98877.97
2023-10-04T01:41:42.033Z,98876.47
2023-10-04T01:41:54.863Z,98883.97
2023-10-04T01:42:07.697Z,98883.38
2023-10-04T01:42:20.779Z,98881.47
2023-10-04T01:42:33.657Z,98881.41
2023-10-04T01:42:47.149Z,98889.31
2023-10-04T01:43:07.379Z,98874.88
2023-10-04T01:43:20.878Z,98881.84
2023-10-04T01:43:33.782Z,98881.50
2023-10-04T01:43:49.464Z,98883.34
2023-10-04T01:44:04.066Z,98882.09
2023-10-04T01:44:17.366Z,98883.25
2023-10-04T01:44:30.474Z,98898.16
2023-10-04T01:44:43.286Z,98886.34
2023-10-04T01:44:56.059Z,98891.94
2023-10-04T01:45:12.887Z,98893.78
2023-10-04T01:45:26.553Z,98891.38
2023-10-04T01:45:39.773Z,98885.72
2023-10-04T01:45:54.339Z,98896.56
2023-10-04T01:46:07.194Z,98883.25
2023-10-04T01:46:20.214Z,98895.16
2023-10-04T01:46:33.089Z,98897.31
2023-10-04T01:46:46.259Z,98885.63
2023-10-04T01:46:59.565Z,98889.16
2023-10-04T01:47:12.441Z,98883.06
2023-10-04T01:47:26.104Z,98889.16
2023-10-04T01:47:42.008Z,98893.56
2023-10-04T01:47:54.933Z,98884.12
2023-10-04T01:48:08.113Z,98892.16
2023-10-04T01:48:21.538Z,98895.59
2023-10-04T01:48:38.042Z,98902.56
2023-10-04T01:48:53.005Z,98897.19
2023-10-04T01:49:08.492Z,98885.03
2023-10-04T01:49:21.388Z,98886.63
2023-10-04T01:49:34.232Z,98893.72
2023-10-04T01:49:47.829Z,98893.91
2023-10-04T01:50:00.677Z,98880.69
2023-10-04T01:50:13.705Z,98911.34
2023-10-04T01:50:26.587Z,98888.53
2023-10-04T01:50:39.654Z,98894.06
2023-10-04T01:50:55.498Z,98886.97
2023-10-04T01:51:08.378Z,98885.25
2023-10-04T01:51:23.135Z,98901.34
2023-10-04T01:51:36.027Z,98889.97
2023-10-04T01:51:50.948Z,98896.50
2023-10-04T01:52:03.766Z,98896.78
2023-10-04T01:52:16.589Z,98895.28
2023-10-04T01:52:29.416Z,98893.94
2023-10-04T01:52:49.094Z,98903.75
2023-10-04T01:53:02.606Z,98898.97
2023-10-04T01:53:15.742Z,98902.03
2023-10-04T01:53:28.582Z,98893.50
2023-10-04T01:53:43.906Z,98903.53
2023-10-04T01:54:01.259Z,98897.09
2023-10-04T01:54:14.267Z,98886.84
2023-10-04T01:54:27.192Z,98915.75
2023-10-04T01:54:40.172Z,98898.16
2023-10-04T01:54:54.935Z,98899.34
2023-10-04T01:55:11.428Z,98904.78
2023-10-04T01:55:24.314Z,98901.16
2023-10-04T01:55:37.770Z,98902.09
2023-10-04T01:55:50.765Z,98896.34
2023-10-04T01:56:04.578Z,98895.97
2023-10-04T01:56:18.624Z,98900.47
2023-10-04T01:56:31.659Z,98914.75
2023-10-04T01:56:44.543Z,98908.41
2023-10-04T01:56:57.373Z,98891.31
2023-10-04T01:57:10.331Z,98902.41
2023-10-04T01:57:23.195Z,98906.69
2023-10-04T01:57:36.074Z,98908.41
2023-10-04T01:57:49.021Z,98899.53
2023-10-04T01:58:01.899Z,98903.25
2023-10-04T01:58:16.369Z,98908.63
2023-10-04T01:58:29.355Z,98905.50
2023-10-04T01:58:42.188Z,98926.53
2023-10-04T01:58:55.261Z,98914.56
2023-10-04T01:59:08.141Z,98912.38
2023-10-04T01:59:20.952Z,98917.63
2023-10-04T01:59:33.922Z,98906.81
2023-10-04T01:59:46.739Z,98916.34
2023-10-04T01:59:59.569Z,98924.31
2023-10-04T02:00:17.612Z,98909.19
2023-10-04T02:00:30.546Z,98909.97
2023-10-04T02:00:44.154Z,98914.56
2023-10-04T02:00:57.489Z,98908.25
2023-10-04T02:01:10.592Z,98909.28
2023-10-04T02:01:23.522Z,98910.59
2023-10-04T02:01:36.502Z,98908.69
2023-10-04T02:01:49.344Z,98904.59
2023-10-04T02:02:02.205Z,98909.97
2023-10-04T02:02:15.907Z,98907.38
2023-10-04T02:02:29.684Z,98915.50
2023-10-04T02:02:42.755Z,98922.41
2023-10-04T02:02:56.084Z,98916.63
2023-10-04T02:03:10.904Z,98922.81
2023-10-04T02:03:25.292Z,98913.50
2023-10-04T02:03:38.422Z,98917.25
2023-10-04T02:03:51.474Z,98919.72
2023-10-04T02:04:06.727Z,98922.59
2023-10-04T02:04:20.400Z,98920.56
2023-10-04T02:04:33.267Z,98918.97
2023-10-04T02:04:53.247Z,98926.78
2023-10-04T02:05:07.647Z,98928.88
2023-10-04T02:05:27.876Z,98926.31
2023-10-04T02:05:42.184Z,98925.28
2023-10-04T02:06:01.203Z,98937.50
2023-10-04T02:06:16.358Z,98922.66
2023-10-04T02:06:29.784Z,98927.16
2023-10-04T02:06:42.704Z,98920.03
2023-10-04T02:06:55.620Z,98927.81
2023-10-04T02:07:09.296Z,98921.88
2023-10-04T02:07:24.940Z,98929.47
2023-10-04T02:07:39.939Z,98928.13
2023-10-04T02:07:52.793Z,98929.41
2023-10-04T02:08:09.250Z,98937.66
2023-10-04T02:08:22.847Z,98937.72
2023-10-04T02:08:35.667Z,98944.09
2023-10-04T02:08:48.537Z,98929.16
2023-10-04T02:09:04.892Z,98933.31
2023-10-04T02:09:21.529Z,98934.63
2023-10-04T02:09:34.606Z,98936.53
2023-10-04T02:09:47.611Z,98941.16
2023-10-04T02:10:00.446Z,98932.44
2023-10-04T02:10:18.766Z,98938.69
2023-10-04T02:10:31.686Z,98940.19
2023-10-04T02:10:46.177Z,98937.50
2023-10-04T02:10:59.254Z,98929.69
2023-10-04T02:11:12.111Z,98933.31
2023-10-04T02:11:25.030Z,98949.19
2023-10-04T02:11:38.027Z,98937.78
2023-10-04T02:11:51.078Z,98944.97
2023-10-04T02:12:05.309Z,98925.66
2023-10-04T02:12:19.579Z,98944.31
2023-10-04T02:12:34.541Z,98924.59
2023-10-04T02:12:47.740Z,98932.44
2023-10-04T02:13:00.598Z,98936.53
2023-10-04T02:13:16.593Z,98935.69
2023-10-04T02:13:29.598Z,98933.87
2023-10-04T02:13:44.945Z,98948.94
2023-10-04T02:13:58.707Z,98931.78
2023-10-04T02:14:12.490Z,98936.16
2023-10-04T02:14:26.998Z,98947.97
2023-10-04T02:14:39.843Z,98940.56
2023-10-04T02:14:54.841Z,98943.22
2023-10-04T02:15:09.047Z,98934.22
2023-10-04T02:15:21.958Z,98941.41
2023-10-04T02:15:38.988Z,98937.66
2023-10-04T02:15:52.816Z,98931.63
2023-10-04T02:16:06.461Z,98934.31
2023-10-04T02:16:22.822Z,98939.22
2023-10-04T02:16:36.155Z,98943.16
2023-10-04T02:16:52.808Z,98941.75
2023-10-04T02:17:09.584Z,98936.50
2023-10-04T02:17:24.054Z,98922.22
2023-10-04T02:17:36.928Z,98938.41
2023-10-04T02:17:51.189Z,98931.12
2023-10-04T02:18:04.530Z,98941.00
2023-10-04T02:18:17.838Z,98934.13
2023-10-04T02:18:30.753Z,98928.56
2023-10-04T02:18:43.742Z,98959.00
2023-10-04T02:18:57.988Z,98927.06
2023-10-04T02:19:11.080Z,98932.03
2023-10-04T02:19:23.921Z,98937.62
2023-10-04T02:19:36.838Z,98940.19
2023-10-04T02:19:49.651Z,98947.25
2023-10-04T02:20:10.352Z,98923.16
2023-10-04T02:20:24.826Z,98934.63
2023-10-04T02:20:37.741Z,98939.22
2023-10-04T02:20:51.733Z,98929.47
2023-10-04T02:21:04.584Z,98930.62
2023-10-04T02:21:18.542Z,98936.19
2023-10-04T02:21:32.074Z,98936.94
2023-10-04T02:21:45.020Z,98929.09
2023-10-04T02:21:57.931Z,98925.28
2023-10-04T02:22:14.221Z,98938.84
2023-10-04T02:22:27.143Z,98936.06
2023-10-04T02:22:40.917Z,98943.81
2023-10-04T02:22:57.069Z,98934.25
2023-10-04T02:23:09.883Z,98927.97
2023-10-04T02:23:22.868Z,98932.00
2023-10-04T02:23:40.015Z,98934.78
2023-10-04T02:23:52.846Z,98935.22
2023-10-04T02:24:05.966Z,98935.22
2023-10-04T02:24:19.033Z,98932.75
2023-10-04T02:24:35.016Z,98963.19
2023-10-04T02:24:48.305Z,98940.22
2023-10-04T02:25:01.124Z,98957.72
2023-10-04T02:25:14.748Z,98942.75
2023-10-04T02:25:27.734Z,98940.44
2023-10-04T02:25:40.966Z,98930.88
2023-10-04T02:25:53.996Z,98946.84
2023-10-04T02:26:11.023Z,98933.75
2023-10-04T02:26:23.947Z,98919.50
2023-10-04T02:26:37.110Z,98954.44
2023-10-04T02:26:51.349Z,98949.41
2023-10-04T02:27:07.579Z,98936.06
2023-10-04T02:27:20.460Z,98935.41
2023-10-04T02:27:33.838Z,98946.12
2023-10-04T02:27:47.330Z,98959.53
2023-10-04T02:28:05.116Z,98941.19
2023-10-04T02:28:21.221Z,98953.53
2023-10-04T02:28:34.986Z,98949.47
2023-10-04T02:28:47.869Z,98938.84
2023-10-04T02:29:00.688Z,98941.53
2023-10-04T02:29:13.704Z,98940.56
2023-10-04T02:29:28.203Z,98926.03
2023-10-04T02:29:45.014Z,98938.38
2023-10-04T02:29:57.871Z,98933.56
2023-10-04T02:30:15.921Z,98941.50
2023-10-04T02:30:29.312Z,98940.19
2023-10-04T02:30:42.884Z,98950.25
2023-10-04T02:30:56.369Z,98950.00
2023-10-04T02:31:09.966Z,98964.34
2023-10-04T02:31:23.419Z,98954.56
2023-10-04T02:31:37.289Z,98933.97
2023-10-04T02:31:50.128Z,98944.91
2023-10-04T02:32:09.459Z,98949.41
2023-10-04T02:32:22.478Z,98952.84
2023-10-04T02:32:37.482Z,98931.03
2023-10-04T02:32:52.098Z,98941.09
2023-10-04T02:33:15.363Z,98937.19
2023-10-04T02:33:33.821Z,98948.75
2023-10-04T02:33:47.322Z,98932.38
2023-10-04T02:34:02.519Z,98929.50
2023-10-04T02:34:20.281Z,98936.28
2023-10-04T02:34:33.244Z,98942.06
2023-10-04T02:34:46.093Z,98922.12
2023-10-04T02:35:00.794Z,98950.75
2023-10-04T02:35:30.254Z,98945.19
2023-10-04T02:35:46.336Z,98944.03
2023-10-04T02:36:02.234Z,98935.09
2023-10-04T02:36:15.249Z,98950.06
2023-10-04T02:36:28.125Z,98942.88
2023-10-04T02:36:44.920Z,98949.09
2023-10-04T02:36:58.011Z,98947.66
2023-10-04T02:37:10.892Z,98940.56
2023-10-04T02:37:24.563Z,98937.78
2023-10-04T02:37:37.403Z,98950.25
2023-10-04T02:37:55.646Z,98938.69
2023-10-04T02:38:17.588Z,98951.22
2023-10-04T02:38:35.079Z,98952.50
2023-10-04T02:38:48.385Z,98950.19
2023-10-04T02:39:01.281Z,98956.75
2023-10-04T02:39:14.204Z,98956.75
2023-10-04T02:39:27.120Z,98943.25
2023-10-04T02:39:39.994Z,98947.09
2023-10-04T02:39:52.941Z,98985.38
2023-10-04T02:40:17.634Z,98942.88
2023-10-04T02:40:33.884Z,98949.34
2023-10-04T02:40:47.908Z,98944.16
2023-10-04T02:41:01.281Z,98956.53
2023-10-04T02:41:14.208Z,98953.47
2023-10-04T02:41:27.651Z,98951.66
2023-10-04T02:41:43.064Z,98949.63
2023-10-04T02:41:55.962Z,98953.28
2023-10-04T02:42:11.141Z,98943.13
2023-10-04T02:42:24.213Z,98945.91
2023-10-04T02:42:37.239Z,98954.13
2023-10-04T02:42:50.364Z,98949.72
2023-10-04T02:43:03.844Z,98959.81
2023-10-04T02:43:17.152Z,98962.78
2023-10-04T02:43:31.331Z,98969.94
2023-10-04T02:43:44.191Z,98961.16
2023-10-04T02:43:57.094Z,98948.34
2023-10-04T02:44:10.005Z,98952.53
2023-10-04T02:44:22.823Z,98956.47
2023-10-04T02:44:35.704Z,98945.06
2023-10-04T02:44:48.922Z,98966.50
2023-10-04T02:45:03.123Z,98948.59
2023-10-04T02:45:21.994Z,98945.81
2023-10-04T02:45:38.197Z,98959.22
2023-10-04T02:45:51.276Z,98948.13
2023-10-04T02:46:04.615Z,98950.81
2023-10-04T02:46:21.755Z,98957.13
2023-10-04T02:46:34.665Z,98963.34
2023-10-04T02:46:49.882Z,98952.22